Aviation Digital Data Service (ADDS)

Output produced by TAFs form (0933 UTC 22 October 2014)
found at http://www.aviationweather.gov/adds/tafs/
 
KMDT 220817Z 2208/2306 31005KT 6SM -SHRA BR BKN025 OVC050 
     FM221000 32008KT 3SM -SHRA BR OVC017 
     FM221600 33013G20KT 6SM -SHRA BR OVC030 
     FM222100 33015KT P6SM VCSH SCT025 OVC050